Time;durP1;ratioP1;P1;durP2;ratioP2;P2;SDS_P1;SDS_P2;PMS_P1;PMS_P2;Temp;Humidity;BMP_temperature;BMP_pressure;BME280_temperature;BME280_humidity;BME280_pressure;Samples;Min_cycle;Max_cycle;Signal;HPM_P1;HPM_P2
2020/12/04 00:00:35;;;;;;;0.40;0.40;;;;;;;-0.36;88.40;98057.25;6245617;22;20587;-80
2020/12/04 00:03:02;;;;;;;0.40;0.40;;;;;;;-0.39;88.32;98063.72;6268652;22;20166;-81
2020/12/04 00:05:29;;;;;;;0.40;0.40;;;;;;;-0.43;88.44;98048.50;6293501;22;20182;-81
2020/12/04 00:07:57;;;;;;;0.40;0.40;;;;;;;-0.47;88.40;98035.69;6269633;22;20162;-80
2020/12/04 00:10:24;;;;;;;0.40;0.40;;;;;;;-0.35;88.55;98054.44;6246109;22;20170;-81
2020/12/04 00:12:55;;;;;;;0.30;0.30;;;;;;;-0.35;88.85;98054.44;6273182;22;20190;-80
2020/12/04 00:15:26;;;;;;;0.30;0.30;;;;;;;-0.44;88.51;98031.88;6297188;22;20146;-81
2020/12/04 00:17:52;;;;;;;0.40;0.40;;;;;;;-0.35;88.73;98051.81;6271939;22;20169;-81
2020/12/04 00:20:19;;;;;;;0.40;0.40;;;;;;;-0.37;88.66;98019.59;6271592;22;20192;-81
2020/12/04 00:22:47;;;;;;;0.40;0.40;;;;;;;-0.25;87.61;98015.47;6325075;22;20231;-81
2020/12/04 00:25:14;;;;;;;0.40;0.40;;;;;;;-0.19;87.96;98022.59;6242174;23;20235;-82
2020/12/04 00:27:45;;;;;;;0.30;0.30;;;;;;;-0.08;87.69;98029.16;6264205;23;20187;-81
2020/12/04 00:30:18;;;;;;;0.40;0.40;;;;;;;-0.04;86.84;98030.41;6238721;23;20159;-81
2020/12/04 00:32:45;;;;;;;0.40;0.40;;;;;;;-0.23;87.32;98002.09;6235474;23;20213;-81
2020/12/04 00:35:15;;;;;;;0.40;0.40;;;;;;;-0.21;87.55;98011.44;6210053;23;20175;-81
2020/12/04 00:37:45;;;;;;;0.40;0.40;;;;;;;-0.15;87.49;97994.91;6237656;23;20504;-81
2020/12/04 00:40:11;;;;;;;0.40;0.40;;;;;;;-0.05;87.07;97999.81;6211976;23;20185;-82
2020/12/04 00:42:39;;;;;;;0.40;0.40;;;;;;;-0.02;86.53;98002.88;6212364;23;20482;-81
2020/12/04 00:45:07;;;;;;;0.40;0.40;;;;;;;-0.01;86.53;97999.25;6236450;23;20241;-81
2020/12/04 00:47:34;;;;;;;0.40;0.40;;;;;;;0.07;86.49;98008.00;6236356;23;20171;-81
2020/12/04 00:50:01;;;;;;;0.50;0.50;;;;;;;0.00;86.68;97981.63;6212780;23;20207;-81
2020/12/04 00:52:30;;;;;;;0.40;0.40;;;;;;;0.07;86.33;98008.81;6187753;23;20172;-81
2020/12/04 00:54:57;;;;;;;0.40;0.40;;;;;;;0.02;86.42;98011.22;6185810;23;20190;-81
2020/12/04 00:57:24;;;;;;;0.40;0.40;;;;;;;-0.07;87.35;97993.94;6186065;23;20177;-80
2020/12/04 00:59:50;;;;;;;0.47;0.47;;;;;;;-0.08;86.82;97989.66;6236293;23;20198;-81
2020/12/04 01:02:18;;;;;;;0.40;0.40;;;;;;;-0.06;87.09;98011.34;6211980;23;20526;-81
2020/12/04 01:04:48;;;;;;;0.40;0.40;;;;;;;-0.08;87.14;97993.09;6209743;23;20167;-81
2020/12/04 01:07:14;;;;;;;0.40;0.40;;;;;;;-0.08;86.84;97979.13;6209909;23;20195;-81
2020/12/04 01:09:42;;;;;;;0.40;0.40;;;;;;;-0.12;87.60;97981.34;6209518;23;20648;-80
2020/12/04 01:12:09;;;;;;;0.40;0.40;;;;;;;-0.06;87.26;97971.88;6233367;23;20171;-80
2020/12/04 01:14:36;;;;;;;0.40;0.40;;;;;;;-0.15;87.21;97975.66;6209431;23;20223;-81
2020/12/04 01:17:02;;;;;;;0.40;0.40;;;;;;;-0.20;87.08;97967.50;6208440;23;20171;-81
2020/12/04 01:19:29;;;;;;;0.40;0.40;;;;;;;-0.03;87.16;97997.78;6209544;23;20455;-81
2020/12/04 01:21:56;;;;;;;0.40;0.40;;;;;;;-0.10;87.42;97984.59;6185076;23;20171;-81
2020/12/04 01:24:23;;;;;;;0.33;0.33;;;;;;;-0.13;86.84;97965.72;6207563;23;20203;-81
2020/12/04 01:26:50;;;;;;;0.30;0.30;;;;;;;-0.23;87.05;97975.78;6208655;23;20172;-81
2020/12/04 01:29:17;;;;;;;0.37;0.37;;;;;;;-0.06;86.61;97972.69;6234099;23;20206;-81
2020/12/04 01:31:47;;;;;;;0.37;0.37;;;;;;;-0.13;86.71;97956.00;6184309;23;20198;-81
2020/12/04 01:34:14;;;;;;;0.40;0.40;;;;;;;-0.12;86.98;97976.06;6231954;23;20186;-80
2020/12/04 01:36:41;;;;;;;0.40;0.40;;;;;;;-0.15;87.45;97965.13;6207779;23;20218;-81
2020/12/04 01:39:07;;;;;;;0.40;0.40;;;;;;;-0.11;87.64;97972.44;6235637;23;20216;-81
2020/12/04 01:41:35;;;;;;;0.40;0.40;;;;;;;-0.11;86.66;97959.28;6233834;23;20176;-81
2020/12/04 01:44:03;;;;;;;0.40;0.40;;;;;;;0.08;85.71;97970.13;6185044;23;20183;-81
2020/12/04 01:46:30;;;;;;;0.30;0.30;;;;;;;-0.09;86.17;97966.97;6182029;23;20179;-81
2020/12/04 01:48:57;;;;;;;0.40;0.40;;;;;;;-0.03;87.20;97982.00;6209363;23;20163;-81
2020/12/04 01:51:24;;;;;;;0.40;0.40;;;;;;;-0.13;86.52;97955.19;6208899;23;20581;-81
2020/12/04 01:53:51;;;;;;;0.30;0.30;;;;;;;-0.18;87.08;97953.13;6205717;23;20219;-80
2020/12/04 01:56:18;;;;;;;0.40;0.40;;;;;;;-0.16;86.89;97969.56;6232321;23;20175;-81
2020/12/04 01:58:45;;;;;;;0.40;0.40;;;;;;;-0.06;86.71;97945.53;6183682;23;20175;-81
2020/12/04 02:01:15;;;;;;;0.30;0.30;;;;;;;-0.07;87.25;97973.69;6206064;23;20170;-81
2020/12/04 02:03:42;;;;;;;0.30;0.30;;;;;;;-0.09;87.23;97975.69;6206423;23;20181;-80
2020/12/04 02:06:37;;;;;;;0.40;0.40;;;;;;;-0.03;86.49;97956.50;6207563;23;20172;-81
2020/12/04 02:09:18;;;;;;;0.50;0.50;;;;;;;0.03;86.25;97962.81;6232089;23;20218;-81
2020/12/04 02:11:46;;;;;;;0.50;0.50;;;;;;;0.06;86.50;97956.34;6182339;23;20171;-80
2020/12/04 02:14:13;;;;;;;0.40;0.40;;;;;;;0.08;86.58;97943.78;6207179;23;20187;-81
2020/12/04 02:16:43;;;;;;;0.40;0.40;;;;;;;0.23;85.86;97973.47;6181898;23;20175;-81
2020/12/04 02:19:11;;;;;;;0.40;0.40;;;;;;;0.25;85.49;97930.09;6231834;23;20171;-81
2020/12/04 02:21:38;;;;;;;0.47;0.47;;;;;;;0.26;84.84;97923.84;6181705;23;20171;-80
2020/12/04 02:24:05;;;;;;;0.40;0.40;;;;;;;0.24;85.51;97917.13;6181469;23;20289;-81
2020/12/04 02:26:33;;;;;;;0.40;0.40;;;;;;;0.12;86.22;97908.16;6232337;23;20198;-81
2020/12/04 02:29:03;;;;;;;0.40;0.40;;;;;;;0.12;86.28;97908.16;6207423;23;20178;-80
2020/12/04 02:31:31;;;;;;;0.40;0.40;;;;;;;-0.02;85.97;97879.13;6231893;23;20221;-81
2020/12/04 02:33:57;;;;;;;0.40;0.40;;;;;;;0.08;86.09;97907.75;6234148;23;20198;-81
2020/12/04 02:36:24;;;;;;;0.50;0.50;;;;;;;-0.11;86.53;97896.09;6234028;23;20198;-81
2020/12/04 02:38:50;;;;;;;0.40;0.40;;;;;;;0.00;86.35;97887.63;6231788;23;20179;-80
2020/12/04 02:41:17;;;;;;;0.50;0.50;;;;;;;0.13;86.33;97904.53;6205140;23;20183;-80
2020/12/04 02:43:44;;;;;;;0.40;0.40;;;;;;;0.01;86.24;97893.72;6203742;23;20167;-80
2020/12/04 02:46:10;;;;;;;0.40;0.40;;;;;;;-0.09;86.55;97909.06;6182260;23;20178;-81
2020/12/04 02:48:37;;;;;;;0.40;0.40;;;;;;;-0.09;86.87;97916.94;6184080;23;20604;-80
2020/12/04 02:51:06;;;;;;;0.33;0.33;;;;;;;-0.15;86.52;97884.34;6206980;23;20175;-81
2020/12/04 02:53:33;;;;;;;0.40;0.40;;;;;;;-0.20;86.52;97888.56;6230859;23;20195;-81
2020/12/04 02:56:01;;;;;;;0.40;0.40;;;;;;;-0.08;86.58;97897.53;6209018;23;20206;-81
2020/12/04 02:58:29;;;;;;;0.43;0.43;;;;;;;-0.11;86.60;97887.38;6209688;23;20181;-80
2020/12/04 03:00:56;;;;;;;0.40;0.40;;;;;;;-0.06;87.32;97911.31;6207698;23;20170;-80
2020/12/04 03:03:23;;;;;;;0.50;0.50;;;;;;;-0.18;87.09;97892.59;6181450;23;20175;-81
2020/12/04 03:05:50;;;;;;;0.40;0.40;;;;;;;-0.05;87.50;97892.66;6215927;23;20168;-81
2020/12/04 03:08:17;;;;;;;0.40;0.40;;;;;;;-0.02;86.69;97900.19;6204018;23;20174;-81
2020/12/04 03:10:47;;;;;;;0.30;0.30;;;;;;;-0.11;86.78;97876.84;6211185;23;20175;-80
2020/12/04 03:13:14;;;;;;;0.47;0.47;;;;;;;-0.18;87.53;97865.47;6257916;23;20199;-81
2020/12/04 03:15:40;;;;;;;0.40;0.40;;;;;;;-0.08;86.82;97863.28;6210115;23;20181;-81
2020/12/04 03:18:07;;;;;;;0.40;0.40;;;;;;;-0.14;87.06;97858.84;6210524;23;20171;-81
2020/12/04 03:20:34;;;;;;;0.40;0.40;;;;;;;-0.01;86.67;97895.75;6209003;23;20182;-81
2020/12/04 03:23:01;;;;;;;0.40;0.40;;;;;;;-0.03;87.13;97889.84;6236212;23;20163;-81
2020/12/04 03:25:28;;;;;;;0.40;0.40;;;;;;;0.00;86.66;97879.75;6264458;22;20199;-80
2020/12/04 03:27:55;;;;;;;0.40;0.40;;;;;;;0.02;86.47;97881.38;6218914;22;20174;-80
2020/12/04 03:30:22;;;;;;;0.40;0.40;;;;;;;-0.12;86.59;97854.97;6235838;23;20209;-80
2020/12/04 03:32:49;;;;;;;0.40;0.40;;;;;;;-0.13;86.60;97857.81;6237531;23;20171;-81
2020/12/04 03:35:17;;;;;;;0.40;0.40;;;;;;;0.04;86.75;97884.63;6236146;23;20306;-81
2020/12/04 03:37:43;;;;;;;0.40;0.40;;;;;;;-0.02;86.09;97887.03;6266069;22;20575;-81
2020/12/04 03:40:11;;;;;;;0.50;0.50;;;;;;;-0.07;86.62;97880.72;6262253;23;20175;-81
2020/12/04 03:42:37;;;;;;;0.40;0.40;;;;;;;-0.04;86.43;97875.88;6214694;22;20230;-81
2020/12/04 03:45:04;;;;;;;0.40;0.40;;;;;;;-0.04;86.24;97867.97;6236870;23;20175;-81
2020/12/04 03:47:31;;;;;;;0.40;0.40;;;;;;;0.09;86.21;97882.22;6263029;22;20178;-81
2020/12/04 03:49:58;;;;;;;0.40;0.40;;;;;;;-0.11;86.02;97863.69;6214692;22;20256;-81
2020/12/04 03:52:24;;;;;;;0.40;0.40;;;;;;;-0.16;86.88;97884.53;6263971;22;20175;-81
2020/12/04 03:54:51;;;;;;;0.40;0.40;;;;;;;-0.13;87.14;97874.41;6292146;22;20195;-81
2020/12/04 03:57:18;;;;;;;0.50;0.50;;;;;;;0.07;86.44;97894.75;6237836;23;20255;-81
2020/12/04 03:59:46;;;;;;;0.43;0.43;;;;;;;0.04;86.10;97895.97;6243317;22;20166;-81
2020/12/04 04:02:15;;;;;;;0.40;0.40;;;;;;;-0.02;86.29;97888.84;6261554;23;20175;-81
2020/12/04 04:04:42;;;;;;;0.30;0.30;;;;;;;-0.04;86.23;97907.47;6217908;22;20168;-81
2020/12/04 04:07:08;;;;;;;0.30;0.30;;;;;;;0.08;85.89;97897.22;6214392;23;20175;-81
2020/12/04 04:09:35;;;;;;;0.40;0.40;;;;;;;0.04;86.13;97900.44;6267657;22;20182;-81
2020/12/04 04:12:08;;;;;;;0.50;0.50;;;;;;;0.03;86.60;97907.50;6241030;23;20151;-81
2020/12/04 04:14:38;;;;;;;0.40;0.40;;;;;;;-0.12;86.86;97902.38;6268660;22;20198;-81
2020/12/04 04:17:06;;;;;;;0.40;0.40;;;;;;;-0.10;86.67;97889.84;6298458;22;20243;-81
2020/12/04 04:19:34;;;;;;;0.43;0.43;;;;;;;-0.07;86.46;97894.69;6242914;22;20163;-81
2020/12/04 04:22:03;;;;;;;0.40;0.40;;;;;;;-0.02;87.01;97905.47;6219222;22;20174;-81
2020/12/04 04:24:30;;;;;;;0.40;0.40;;;;;;;-0.13;86.66;97890.19;6240618;22;20198;-81
2020/12/04 04:26:56;;;;;;;0.40;0.40;;;;;;;-0.14;86.54;97890.41;6242422;23;20171;-81
2020/12/04 04:29:25;;;;;;;0.40;0.40;;;;;;;0.15;85.88;97908.56;6217067;22;20175;-81
2020/12/04 04:31:54;;;;;;;0.40;0.40;;;;;;;0.02;85.94;97911.16;6244643;22;20201;-81
2020/12/04 04:34:22;;;;;;;0.40;0.40;;;;;;;0.24;85.46;97931.09;6239392;23;20179;-80
2020/12/04 04:36:51;;;;;;;0.40;0.40;;;;;;;0.10;84.75;97905.72;6265612;23;20163;-81
2020/12/04 04:39:19;;;;;;;0.30;0.30;;;;;;;0.08;85.71;97912.19;6216965;23;20175;-81
2020/12/04 04:41:57;;;;;;;0.40;0.40;;;;;;;0.13;85.32;97915.06;6240754;23;20517;-81
2020/12/04 04:44:30;;;;;;;0.30;0.30;;;;;;;-0.01;85.02;97891.31;6242990;22;20557;-81
2020/12/04 04:47:06;;;;;;;0.40;0.40;;;;;;;0.11;85.04;97907.34;6291091;22;20171;-81
2020/12/04 04:49:36;;;;;;;0.40;0.40;;;;;;;0.06;85.13;97893.13;6243847;22;20159;-81
2020/12/04 04:52:08;;;;;;;0.40;0.40;;;;;;;0.20;84.39;97895.63;6267174;23;20198;-81
2020/12/04 04:54:42;;;;;;;0.40;0.40;;;;;;;0.04;84.82;97882.00;6269026;22;20198;-81
2020/12/04 04:57:09;;;;;;;0.40;0.40;;;;;;;0.02;84.36;97874.28;6242816;23;20182;-81
2020/12/04 04:59:36;;;;;;;0.40;0.40;;;;;;;0.12;84.91;97905.53;6219008;22;20211;-81
2020/12/04 05:02:03;;;;;;;0.40;0.40;;;;;;;0.07;85.09;97910.56;6256084;23;20167;-81
2020/12/04 05:04:52;;;;;;;0.50;0.50;;;;;;;0.08;84.92;97909.56;6269134;22;20163;-81
2020/12/04 05:07:32;;;;;;;0.40;0.40;;;;;;;-0.06;84.82;97893.69;6246663;22;20181;-81
2020/12/04 05:10:16;;;;;;;0.47;0.47;;;;;;;0.02;85.32;97915.59;6220474;22;20201;-81
2020/12/04 05:12:44;;;;;;;0.40;0.40;;;;;;;-0.03;85.66;97908.28;6268778;22;20163;-81
2020/12/04 05:15:24;;;;;;;0.37;0.37;;;;;;;-0.15;85.62;97901.94;6264319;23;20202;-81
2020/12/04 05:18:05;;;;;;;0.40;0.40;;;;;;;-0.01;85.74;97899.19;6239977;23;20175;-81
2020/12/04 05:20:40;;;;;;;0.40;0.40;;;;;;;-0.08;85.56;97908.88;6266847;22;20186;-81
2020/12/04 05:23:12;;;;;;;0.40;0.40;;;;;;;-0.19;85.84;97883.09;6247522;22;20139;-81
2020/12/04 05:25:45;;;;;;;0.40;0.40;;;;;;;-0.22;85.47;97872.13;6266305;22;20171;-81
2020/12/04 05:28:17;;;;;;;0.40;0.40;;;;;;;-0.11;86.45;97900.56;6264411;23;20172;-81
2020/12/04 05:31:10;;;;;;;0.40;0.40;;;;;;;-0.21;86.13;97892.19;6243555;22;20171;-81
2020/12/04 05:33:40;;;;;;;0.40;0.40;;;;;;;-0.09;86.13;97904.59;6241490;22;20187;-81
2020/12/04 05:36:09;;;;;;;0.40;0.40;;;;;;;-0.16;85.90;97874.81;6265343;22;20231;-81
2020/12/04 05:38:37;;;;;;;0.40;0.40;;;;;;;0.00;84.96;97886.84;6267362;22;20171;-81
2020/12/04 05:41:09;;;;;;;0.40;0.40;;;;;;;-0.09;85.27;97873.00;6271459;22;20627;-81
2020/12/04 05:43:40;;;;;;;0.40;0.40;;;;;;;0.00;85.83;97889.47;6270396;22;20170;-81
2020/12/04 05:46:22;;;;;;;0.40;0.40;;;;;;;-0.14;85.50;97864.09;6217532;23;20171;-82
2020/12/04 05:49:08;;;;;;;0.40;0.40;;;;;;;-0.04;85.27;97886.41;6218362;23;20171;-82
2020/12/04 05:51:40;;;;;;;0.40;0.40;;;;;;;0.00;84.80;97890.28;6296048;22;20159;-81
2020/12/04 05:54:10;;;;;;;0.40;0.40;;;;;;;-0.07;85.57;97870.19;6241939;23;20182;-81
2020/12/04 05:56:39;;;;;;;0.40;0.40;;;;;;;-0.07;85.26;97873.63;6246679;22;20253;-81
2020/12/04 05:59:10;;;;;;;0.40;0.40;;;;;;;0.04;85.16;97879.38;6265828;23;20168;-81
2020/12/04 06:01:45;;;;;;;0.40;0.40;;;;;;;0.06;84.54;97866.81;6269277;22;20227;-81
2020/12/04 06:04:19;;;;;;;0.40;0.40;;;;;;;0.02;85.09;97876.91;6223209;22;20166;-82
2020/12/04 06:06:50;;;;;;;0.40;0.40;;;;;;;-0.06;85.78;97872.63;6248808;22;20197;-81
2020/12/04 06:09:21;;;;;;;0.40;0.40;;;;;;;-0.14;85.19;97872.78;6242931;23;20167;-81
2020/12/04 06:11:52;;;;;;;0.40;0.40;;;;;;;-0.07;85.33;97878.09;6263337;22;20234;-81
2020/12/04 06:14:23;;;;;;;0.40;0.40;;;;;;;0.01;85.30;97906.88;6270671;23;20191;-82
2020/12/04 06:17:11;;;;;;;0.40;0.40;;;;;;;-0.05;85.33;97891.88;6220523;23;20172;-82
2020/12/04 06:19:50;;;;;;;0.50;0.50;;;;;;;0.01;85.70;97901.63;6249578;22;20223;-82
2020/12/04 06:22:24;;;;;;;0.30;0.30;;;;;;;0.03;84.64;97904.06;6244410;23;20159;-81
2020/12/04 06:24:56;;;;;;;0.33;0.33;;;;;;;0.18;84.27;97912.66;6269010;22;20195;-81
2020/12/04 06:27:38;;;;;;;0.40;0.40;;;;;;;0.11;85.02;97901.25;6240296;23;20178;-82
2020/12/04 06:30:09;;;;;;;0.40;0.40;;;;;;;-0.04;84.88;97883.78;6231078;23;20164;-82
2020/12/04 06:32:51;;;;;;;0.40;0.40;;;;;;;-0.04;84.79;97898.75;6189569;23;20172;-82
2020/12/04 06:35:38;;;;;;;0.40;0.40;;;;;;;-0.04;84.77;97893.50;6191468;23;20190;-82
2020/12/04 06:38:40;;;;;;;0.40;0.40;;;;;;;-0.04;85.01;97880.31;6214906;23;20151;-81
2020/12/04 06:41:22;;;;;;;0.40;0.40;;;;;;;-0.15;85.09;97865.91;6209576;23;20167;-82
2020/12/04 06:43:56;;;;;;;0.40;0.40;;;;;;;-0.08;84.58;97873.81;6188485;23;20274;-81
2020/12/04 06:46:32;;;;;;;0.40;0.40;;;;;;;-0.15;85.30;97875.63;6213724;23;20253;-81
2020/12/04 06:52:07;;;;;;;0.40;0.40;;;;;;;-0.10;84.82;97895.09;6214236;23;20172;-82
2020/12/04 06:54:40;;;;;;;0.40;0.40;;;;;;;-0.11;85.04;97890.03;6240552;23;20175;-81
2020/12/04 06:57:15;;;;;;;0.40;0.40;;;;;;;-0.13;85.17;97890.19;6189499;23;20175;-81
2020/12/04 06:59:48;;;;;;;0.40;0.40;;;;;;;-0.13;85.54;97890.19;6193220;23;20219;-82
2020/12/04 07:02:28;;;;;;;0.40;0.40;;;;;;;0.02;85.00;97912.97;6193319;23;20187;-81
2020/12/04 07:04:57;;;;;;;0.37;0.37;;;;;;;0.09;84.98;97934.91;6241300;23;20231;-81
2020/12/04 07:07:33;;;;;;;0.40;0.40;;;;;;;0.04;84.44;97916.22;6195793;23;20136;-82
2020/12/04 07:10:07;;;;;;;0.30;0.30;;;;;;;0.02;84.89;97916.41;6216445;23;20176;-81
2020/12/04 07:12:42;;;;;;;0.40;0.40;;;;;;;0.09;84.45;97917.28;6243116;23;20172;-81
2020/12/04 07:15:14;;;;;;;0.40;0.40;;;;;;;0.15;84.81;97919.13;6217466;23;20206;-82
2020/12/04 07:17:45;;;;;;;0.40;0.40;;;;;;;0.25;84.76;97935.38;6193770;23;20172;-82
2020/12/04 07:20:38;;;;;;;0.40;0.40;;;;;;;0.21;84.85;97926.25;6204128;23;20152;-82
2020/12/04 07:23:11;;;;;;;0.40;0.40;;;;;;;0.13;84.27;97923.78;6218801;23;20162;-82
2020/12/04 07:25:56;;;;;;;0.43;0.43;;;;;;;0.26;85.07;97938.81;6223994;23;20219;-82
2020/12/04 07:28:36;;;;;;;0.40;0.40;;;;;;;0.19;84.32;97909.00;6273409;22;20171;-82
2020/12/04 07:31:26;;;;;;;0.40;0.40;;;;;;;0.23;85.06;97936.59;6251840;23;20167;-81
2020/12/04 07:34:06;;;;;;;0.40;0.40;;;;;;;0.40;85.04;97930.78;6273705;23;20167;-82
2020/12/04 07:36:38;;;;;;;0.40;0.40;;;;;;;0.32;84.26;97917.78;6248320;23;20159;-81
2020/12/04 07:39:11;;;;;;;0.37;0.37;;;;;;;0.28;84.52;97926.28;6221866;23;20175;-80
2020/12/04 07:41:44;;;;;;;0.40;0.40;;;;;;;0.31;84.44;97939.06;6197082;22;20154;-81
2020/12/04 07:44:17;;;;;;;0.40;0.40;;;;;;;0.40;84.26;97938.69;6272818;22;20174;-82
2020/12/04 07:47:02;;;;;;;0.40;0.40;;;;;;;0.44;83.96;97947.84;6270608;23;20174;-81
2020/12/04 07:49:36;;;;;;;0.40;0.40;;;;;;;0.38;83.72;97935.44;6221754;23;20204;-81
2020/12/04 07:52:11;;;;;;;0.50;0.50;;;;;;;0.35;83.56;97949.00;6271212;23;20178;-82
2020/12/04 07:54:40;;;;;;;0.40;0.40;;;;;;;0.31;84.31;97942.50;6247492;23;20192;-82
2020/12/04 07:57:24;;;;;;;0.40;0.40;;;;;;;0.32;84.21;97948.59;6241206;23;20198;-82
2020/12/04 07:59:58;;;;;;;0.40;0.40;;;;;;;0.31;84.85;97941.69;6247841;23;20179;-81
2020/12/04 08:02:28;;;;;;;0.40;0.40;;;;;;;0.34;84.05;97944.75;6245990;23;20151;-82
2020/12/04 08:05:00;;;;;;;0.40;0.40;;;;;;;0.30;84.27;97938.25;6245805;23;20171;-82
2020/12/04 08:07:30;;;;;;;0.40;0.40;;;;;;;0.41;84.36;97926.34;6246725;23;20171;-81
2020/12/04 08:09:59;;;;;;;0.30;0.30;;;;;;;0.49;83.77;97928.81;6246487;23;20174;-81
2020/12/04 08:12:34;;;;;;;0.40;0.40;;;;;;;0.63;84.03;97927.03;6221714;23;20162;-81
2020/12/04 08:15:24;;;;;;;0.30;0.30;;;;;;;0.60;83.39;97916.88;6251159;23;20175;-82
2020/12/04 08:18:05;;;;;;;0.40;0.40;;;;;;;0.56;83.24;97913.81;6222519;23;20250;-82
2020/12/04 08:20:42;;;;;;;0.30;0.30;;;;;;;0.61;83.73;97923.75;6199810;23;20163;-82
2020/12/04 08:23:11;;;;;;;0.40;0.40;;;;;;;0.60;82.75;97912.44;6223316;23;20154;-81
2020/12/04 08:25:51;;;;;;;0.40;0.40;;;;;;;0.78;82.48;97925.88;6198939;23;20267;-82
2020/12/04 08:28:21;;;;;;;0.40;0.40;;;;;;;0.84;83.14;97927.69;6272831;22;20189;-82
2020/12/04 08:31:25;;;;;;;0.40;0.40;;;;;;;0.80;82.72;97913.28;6271493;23;20155;-82
2020/12/04 08:33:56;;;;;;;0.40;0.40;;;;;;;0.94;83.01;97929.13;6245071;23;20195;-81
2020/12/04 08:36:33;;;;;;;0.30;0.30;;;;;;;0.85;82.56;97908.22;6269631;22;20183;-82
2020/12/04 08:39:10;;;;;;;0.50;0.50;;;;;;;0.91;82.58;97903.16;6247382;23;20194;-81
2020/12/04 08:41:51;;;;;;;0.40;0.40;;;;;;;1.06;82.13;97909.09;6249313;22;20132;-81
2020/12/04 08:44:27;;;;;;;0.40;0.40;;;;;;;1.01;81.65;97893.88;6223723;23;20168;-80
2020/12/04 08:47:06;;;;;;;0.40;0.40;;;;;;;1.36;81.49;97918.22;6265198;23;20195;-81
2020/12/04 08:49:51;;;;;;;0.40;0.40;;;;;;;1.27;81.32;97908.88;6268310;23;20215;-82
2020/12/04 08:52:38;;;;;;;0.40;0.40;;;;;;;1.17;82.56;97897.91;6271099;22;20140;-81
2020/12/04 08:55:15;;;;;;;0.40;0.40;;;;;;;1.16;81.78;97877.84;6268372;22;20167;-81
2020/12/04 08:57:54;;;;;;;0.40;0.40;;;;;;;1.15;82.22;97907.88;6245084;23;20227;-81
2020/12/04 09:00:33;;;;;;;0.40;0.40;;;;;;;1.20;82.24;97893.06;6197003;23;20176;-82
2020/12/04 09:03:04;;;;;;;0.40;0.40;;;;;;;1.31;80.95;97904.84;6270737;23;20225;-82
2020/12/04 09:05:41;;;;;;;0.30;0.30;;;;;;;1.21;81.97;97896.53;6264699;22;20147;-82
2020/12/04 09:08:26;;;;;;;0.30;0.30;;;;;;;1.22;82.43;97898.13;6290796;22;20175;-82
2020/12/04 09:11:03;;;;;;;0.40;0.40;;;;;;;1.17;81.62;97872.34;6293937;22;20170;-82
2020/12/04 09:13:36;;;;;;;0.40;0.40;;;;;;;1.30;80.64;97859.19;6269867;23;20206;-81
2020/12/04 09:16:17;;;;;;;0.40;0.40;;;;;;;1.39;81.44;97856.34;6268406;22;20171;-81
2020/12/04 09:18:55;;;;;;;0.40;0.40;;;;;;;1.40;81.47;97869.31;6269681;23;20152;-81
2020/12/04 09:21:28;;;;;;;0.40;0.40;;;;;;;1.51;81.04;97895.09;6270511;22;20147;-81
2020/12/04 09:24:03;;;;;;;0.40;0.40;;;;;;;1.41;81.28;97867.47;6268694;23;20206;-81
2020/12/04 09:26:40;;;;;;;0.40;0.40;;;;;;;1.43;81.20;97873.38;6271112;23;20158;-81
2020/12/04 09:29:23;;;;;;;0.40;0.40;;;;;;;1.47;81.46;97875.41;6285042;22;20167;-82
2020/12/04 09:32:09;;;;;;;0.40;0.40;;;;;;;1.52;80.50;97858.97;6227515;23;20146;-83
2020/12/04 09:34:53;;;;;;;0.33;0.33;;;;;;;1.46;81.18;97865.03;6273963;22;20174;-82
2020/12/04 09:37:59;;;;;;;0.30;0.30;;;;;;;1.61;80.34;97884.94;6294995;22;20147;-83
2020/12/04 09:40:45;;;;;;;0.40;0.40;;;;;;;1.64;80.49;97902.19;6267432;22;20234;-82
2020/12/04 09:43:29;;;;;;;0.40;0.40;;;;;;;1.57;80.96;97898.75;6276131;22;20177;-82
2020/12/04 09:46:16;;;;;;;0.40;0.40;;;;;;;1.60;80.81;97898.34;6287235;22;20226;-82
2020/12/04 09:49:07;;;;;;;0.30;0.30;;;;;;;1.71;80.58;97913.56;6250400;22;20610;-82
2020/12/04 09:52:13;;;;;;;0.40;0.40;;;;;;;1.66;80.76;97889.59;6273863;22;20182;-82
2020/12/04 09:55:31;;;;;;;0.40;0.40;;;;;;;1.84;79.84;97904.81;6274298;22;20174;-83
2020/12/04 09:58:05;;;;;;;0.40;0.40;;;;;;;1.88;80.01;97866.41;6293205;22;20167;-82
2020/12/04 10:00:43;;;;;;;0.40;0.40;;;;;;;1.96;79.58;97879.41;6271763;22;20219;-82
2020/12/04 10:03:31;;;;;;;0.40;0.40;;;;;;;1.97;79.87;97851.94;6270588;22;20168;-82
2020/12/04 10:06:55;;;;;;;0.40;0.40;;;;;;;2.07;79.29;97831.19;6294857;22;20174;-82
2020/12/04 10:09:33;;;;;;;0.40;0.40;;;;;;;2.07;79.18;97826.72;6298133;22;20174;-82
2020/12/04 10:12:18;;;;;;;0.40;0.40;;;;;;;2.06;79.31;97811.06;6271929;23;20186;-82
2020/12/04 10:15:03;;;;;;;0.40;0.40;;;;;;;2.26;78.85;97816.28;6272328;22;20197;-82
2020/12/04 10:17:33;;;;;;;0.40;0.40;;;;;;;2.21;78.97;97793.13;6271088;22;20155;-82
2020/12/04 10:20:33;;;;;;;0.50;0.50;;;;;;;2.22;78.83;97800.84;6291878;22;20190;-81
2020/12/04 10:23:09;;;;;;;0.40;0.40;;;;;;;2.40;78.21;97799.34;6199183;23;20181;-81
2020/12/04 10:25:46;;;;;;;0.40;0.40;;;;;;;2.20;79.19;97775.66;6216936;23;20187;-82
2020/12/04 10:28:16;;;;;;;0.40;0.40;;;;;;;2.05;79.05;97772.50;6214000;23;20167;-81
2020/12/04 10:31:00;;;;;;;0.40;0.40;;;;;;;2.12;79.06;97784.66;6243850;23;20258;-80
2020/12/04 10:33:58;;;;;;;0.37;0.37;;;;;;;2.10;79.36;97785.88;6223617;23;20196;-83
2020/12/04 11:13:33;;;;;;;0.40;0.40;;;;;;;2.15;78.88;97794.78;6236841;23;20240;-87
2020/12/04 11:30:13;;;;;;;0.40;0.40;;;;;;;2.10;78.37;97784.03;6153547;23;20149;-87
2020/12/04 11:34:47;;;;;;;0.40;0.40;;;;;;;2.28;78.08;97783.34;6119205;23;20229;-87
2020/12/04 11:39:01;;;;;;;0.40;0.40;;;;;;;2.74;76.92;97821.91;6138708;23;20182;-87
2020/12/04 17:11:28;;;;;;;0.40;0.40;;;;;;;1.56;82.23;97916.41;6268173;22;20202;-84
2020/12/04 17:18:50;;;;;;;0.40;0.40;;;;;;;1.54;82.59;97902.59;6269238;22;20198;-84
2020/12/04 17:21:53;;;;;;;0.40;0.40;;;;;;;1.53;81.65;97887.78;6253788;23;20226;-84
2020/12/04 17:24:42;;;;;;;0.40;0.40;;;;;;;1.83;80.51;97895.25;6271384;22;20151;-83
2020/12/04 17:27:49;;;;;;;0.40;0.40;;;;;;;1.64;81.41;97907.47;6247832;23;20202;-85
2020/12/04 17:30:40;;;;;;;0.40;0.40;;;;;;;1.58;81.63;97892.47;6272221;22;20245;-85
2020/12/04 17:33:46;;;;;;;0.40;0.40;;;;;;;1.52;82.64;97886.16;6273697;22;20155;-84
2020/12/04 17:36:31;;;;;;;0.40;0.40;;;;;;;1.42;82.39;97916.63;6273504;22;20171;-84
2020/12/04 17:39:53;;;;;;;0.40;0.40;;;;;;;1.20;83.12;97886.97;6271716;22;20151;-85
2020/12/04 17:43:05;;;;;;;0.40;0.40;;;;;;;1.22;83.10;97893.66;6251890;22;20174;-85
2020/12/04 17:46:09;;;;;;;0.40;0.40;;;;;;;1.41;83.33;97922.91;6273149;22;20177;-85
2020/12/04 17:49:08;;;;;;;0.40;0.40;;;;;;;1.34;83.18;97938.75;6274454;22;20163;-85
2020/12/04 17:52:42;;;;;;;0.40;0.40;;;;;;;1.25;83.19;97932.84;6242873;23;20194;-84
2020/12/04 17:55:34;;;;;;;0.30;0.30;;;;;;;1.29;83.24;97952.53;6264745;22;20175;-84
2020/12/04 17:58:50;;;;;;;0.40;0.40;;;;;;;1.28;83.49;97952.72;6257754;22;20155;-84
2020/12/04 18:05:40;;;;;;;0.40;0.40;;;;;;;1.18;84.08;97947.03;6273880;22;20167;-83
2020/12/04 18:08:55;;;;;;;0.40;0.40;;;;;;;1.40;83.08;97974.88;6116770;23;20176;-84
2020/12/04 18:12:21;;;;;;;0.40;0.40;;;;;;;1.28;83.04;97958.00;6163628;23;20217;-85
2020/12/04 18:16:17;;;;;;;0.30;0.30;;;;;;;1.32;83.63;97965.31;6169061;23;20177;-85
2020/12/04 18:19:45;;;;;;;0.40;0.40;;;;;;;1.55;82.43;97964.13;6181309;23;20188;-83
2020/12/04 18:23:11;;;;;;;0.40;0.40;;;;;;;1.61;82.02;97953.56;6163240;23;20218;-84
2020/12/04 18:26:12;;;;;;;0.37;0.37;;;;;;;1.63;81.88;97961.31;6163018;23;20160;-85
2020/12/04 18:34:27;;;;;;;0.40;0.40;;;;;;;1.66;81.86;97969.63;6165978;23;20168;-85
2020/12/04 18:37:48;;;;;;;0.40;0.40;;;;;;;1.58;81.93;97964.56;6144532;23;20177;-84
2020/12/04 18:40:44;;;;;;;0.40;0.40;;;;;;;1.72;81.65;97958.25;6180991;23;20153;-84
2020/12/04 18:43:38;;;;;;;0.40;0.40;;;;;;;1.64;81.80;97961.06;6182525;23;20157;-84
2020/12/04 18:46:49;;;;;;;0.40;0.40;;;;;;;1.77;81.10;97976.91;6181105;23;20156;-84
2020/12/04 18:50:16;;;;;;;0.40;0.40;;;;;;;1.67;81.85;97958.06;6163417;23;20180;-85
2020/12/04 18:58:34;;;;;;;0.40;0.40;;;;;;;1.67;81.25;97981.81;6152716;23;20362;-84
2020/12/04 19:02:37;;;;;;;0.40;0.40;;;;;;;1.77;81.34;97973.50;6097793;23;20164;-84
2020/12/04 19:06:00;;;;;;;0.40;0.40;;;;;;;1.98;80.76;97994.38;6155116;23;20148;-84
2020/12/04 19:13:25;;;;;;;0.40;0.40;;;;;;;2.04;80.16;97990.13;6178576;23;20183;-83
2020/12/04 19:17:12;;;;;;;0.40;0.40;;;;;;;2.17;79.91;98009.41;6139535;23;20152;-85
2020/12/04 19:29:16;;;;;;;0.40;0.40;;;;;;;2.03;80.71;98015.72;6209985;23;20194;-85